Time,TemperatureF,DewpointF,PressureIn,WindDirection,WindDirectionDegrees,WindSpeedMPH,WindSpeedGustMPH,Humidity,HourlyPrecipIn,Conditions,Clouds,dailyrainin,SoftwareType,DateUTC
2013-08-31 00:12:00,64.2,59.0,25.70,SE,125,6.0,12.0,83,0.00,,,0.00,weatherlink.com 1.10,2013-08-31 06:12:00,
2013-08-31 00:27:00,63.7,59.0,25.70,SE,146,5.0,11.0,85,0.00,,,0.00,weatherlink.com 1.10,2013-08-31 06:27:00,
2013-08-31 00:42:00,63.2,59.0,25.70,SSE,167,5.0,7.0,86,0.00,,,0.00,weatherlink.com 1.10,2013-08-31 06:42:00,
2013-08-31 00:57:00,62.6,59.0,25.70,SSE,162,4.0,7.0,87,0.00,,,0.00,weatherlink.com 1.10,2013-08-31 06:57:00,
2013-08-31 01:12:00,61.7,59.0,25.70,SSW,199,4.0,4.0,89,0.00,,,0.00,weatherlink.com 1.10,2013-08-31 07:12:00,
2013-08-31 01:28:00,61.0,58.0,25.70,SSW,200,3.0,4.0,90,0.00,,,0.00,weatherlink.com 1.10,2013-08-31 07:28:00,
2013-08-31 01:43:00,60.4,58.0,25.69,SSW,210,5.0,5.0,91,0.00,,,0.00,weatherlink.com 1.10,2013-08-31 07:43:00,
2013-08-31 01:58:00,60.0,58.0,25.68,SW,214,5.0,6.0,92,0.00,,,0.00,weatherlink.com 1.10,2013-08-31 07:58:00,
2013-08-31 02:13:00,60.6,58.0,25.68,SW,229,7.0,8.0,92,0.00,,,0.00,weatherlink.com 1.10,2013-08-31 08:13:00,
2013-08-31 02:28:00,60.8,59.0,25.67,SW,217,7.0,8.0,92,0.00,,,0.00,weatherlink.com 1.10,2013-08-31 08:28:00,
2013-08-31 02:43:00,60.6,58.0,25.66,SW,219,8.0,9.0,92,0.00,,,0.00,weatherlink.com 1.10,2013-08-31 08:43:00,
2013-08-31 02:58:00,60.7,58.0,25.66,SW,219,8.0,12.0,92,0.00,,,0.00,weatherlink.com 1.10,2013-08-31 08:58:00,
2013-08-31 03:28:00,61.6,59.0,25.66,WSW,238,8.0,10.0,90,0.00,,,0.00,weatherlink.com 1.10,2013-08-31 09:28:00,
2013-08-31 03:43:00,61.5,59.0,25.66,WSW,238,7.0,9.0,90,0.00,,,0.00,weatherlink.com 1.10,2013-08-31 09:43:00,
2013-08-31 03:58:00,61.6,58.0,25.65,WSW,243,6.0,10.0,89,0.00,,,0.00,weatherlink.com 1.10,2013-08-31 09:58:00,
2013-08-31 04:13:00,61.8,59.0,25.66,WSW,242,7.0,8.0,89,0.00,,,0.00,weatherlink.com 1.10,2013-08-31 10:13:00,
2013-08-31 04:28:00,62.0,59.0,25.65,WSW,239,6.0,7.0,89,0.00,,,0.00,weatherlink.com 1.10,2013-08-31 10:28:00,
2013-08-31 04:43:00,62.2,59.0,25.65,WSW,238,8.0,9.0,89,0.00,,,0.00,weatherlink.com 1.10,2013-08-31 10:43:00,
2013-08-31 04:58:00,63.1,59.0,25.65,SW,225,10.0,10.0,86,0.00,,,0.00,weatherlink.com 1.10,2013-08-31 10:58:00,
2013-08-31 05:13:00,63.9,59.0,25.65,SW,229,8.0,11.0,84,0.00,,,0.00,weatherlink.com 1.10,2013-08-31 11:13:00,
2013-08-31 05:28:00,63.9,59.0,25.65,SW,225,8.0,10.0,83,0.00,,,0.00,weatherlink.com 1.10,2013-08-31 11:28:00,
2013-08-31 05:43:00,63.6,58.0,25.65,WSW,241,6.0,7.0,83,0.00,,,0.00,weatherlink.com 1.10,2013-08-31 11:43:00,
2013-08-31 05:58:00,62.7,58.0,25.65,WSW,253,6.0,8.0,85,0.00,,,0.00,weatherlink.com 1.10,2013-08-31 11:58:00,
2013-08-31 06:13:00,62.3,58.0,25.66,SW,229,5.0,6.0,86,0.00,,,0.00,weatherlink.com 1.10,2013-08-31 12:13:00,
2013-08-31 06:28:00,62.2,58.0,25.66,WSW,240,6.0,7.0,85,0.00,,,0.00,weatherlink.com 1.10,2013-08-31 12:28:00,
2013-08-31 06:43:00,62.1,58.0,25.66,WSW,245,5.0,6.0,85,0.00,,,0.00,weatherlink.com 1.10,2013-08-31 12:43:00,
2013-08-31 06:58:00,62.4,58.0,25.66,WSW,241,5.0,5.0,84,0.00,,,0.00,weatherlink.com 1.10,2013-08-31 12:58:00,
2013-08-31 07:13:00,61.3,57.0,25.66,West,267,4.0,5.0,86,0.00,,,0.00,weatherlink.com 1.10,2013-08-31 13:13:00,
2013-08-31 07:28:00,62.0,58.0,25.66,West,263,4.0,5.0,87,0.00,,,0.00,weatherlink.com 1.10,2013-08-31 13:28:00,
2013-08-31 07:58:00,67.6,60.0,25.66,West,266,9.0,12.0,77,0.00,,,0.00,weatherlink.com 1.10,2013-08-31 13:58:00,
2013-08-31 08:13:00,69.3,61.0,25.66,WSW,245,10.0,16.0,74,0.00,,,0.00,weatherlink.com 1.10,2013-08-31 14:13:00,
2013-08-31 08:28:00,70.4,61.0,25.66,WSW,255,12.0,15.0,72,0.00,,,0.00,weatherlink.com 1.10,2013-08-31 14:28:00,
2013-08-31 08:43:00,71.8,62.0,25.66,WSW,256,14.0,17.0,70,0.00,,,0.00,weatherlink.com 1.10,2013-08-31 14:43:00,
2013-08-31 08:58:00,73.8,63.0,25.65,West,267,12.0,14.0,69,0.00,,,0.00,weatherlink.com 1.10,2013-08-31 14:58:00,
2013-08-31 09:13:00,75.6,61.0,25.65,West,269,12.0,15.0,61,0.00,,,0.00,weatherlink.com 1.10,2013-08-31 15:13:00,
2013-08-31 09:29:00,77.5,61.0,25.65,West,263,11.0,14.0,57,0.00,,,0.00,weatherlink.com 1.10,2013-08-31 15:29:00,
2013-08-31 09:44:00,79.7,58.0,25.65,West,279,7.0,15.0,48,0.00,,,0.00,weatherlink.com 1.10,2013-08-31 15:44:00,
2013-08-31 09:59:00,81.3,60.0,25.65,WNW,299,12.0,15.0,48,0.00,,,0.00,weatherlink.com 1.10,2013-08-31 15:59:00,
2013-08-31 10:14:00,82.3,59.0,25.64,NW,305,12.0,21.0,45,0.00,,,0.00,weatherlink.com 1.10,2013-08-31 16:14:00,
2013-08-31 10:29:00,83.6,58.0,25.64,NW,322,12.0,19.0,42,0.00,,,0.00,weatherlink.com 1.10,2013-08-31 16:29:00,
2013-08-31 10:44:00,86.3,52.0,25.64,NNW,330,18.0,22.0,31,0.00,,,0.00,weatherlink.com 1.10,2013-08-31 16:44:00,
2013-08-31 10:59:00,87.8,52.0,25.64,NNW,334,16.0,23.0,29,0.00,,,0.00,weatherlink.com 1.10,2013-08-31 16:59:00,
2013-08-31 11:14:00,85.8,53.0,25.64,NNW,334,11.0,21.0,32,0.00,,,0.00,weatherlink.com 1.10,2013-08-31 17:14:00,
2013-08-31 11:29:00,86.2,51.0,25.64,NNW,333,16.0,22.0,30,0.00,,,0.00,weatherlink.com 1.10,2013-08-31 17:29:00,
2013-08-31 11:44:00,86.9,53.0,25.63,North,11,16.0,21.0,31,0.00,,,0.00,weatherlink.com 1.10,2013-08-31 17:44:00,
2013-08-31 11:59:00,89.2,49.0,25.63,North,350,19.0,21.0,25,0.00,,,0.00,weatherlink.com 1.10,2013-08-31 17:59:00,
2013-08-31 12:14:00,89.4,49.0,25.63,NW,316,11.0,23.0,25,0.00,,,0.00,weatherlink.com 1.10,2013-08-31 18:14:00,
2013-08-31 12:29:00,90.4,48.0,25.63,NNW,333,9.0,23.0,23,0.00,,,0.00,weatherlink.com 1.10,2013-08-31 18:29:00,
2013-08-31 12:44:00,90.6,48.0,25.63,North,356,10.0,21.0,23,0.00,,,0.00,weatherlink.com 1.10,2013-08-31 18:44:00,
2013-08-31 12:59:00,90.8,49.0,25.63,NNW,328,14.0,21.0,24,0.00,,,0.00,weatherlink.com 1.10,2013-08-31 18:59:00,
2013-08-31 13:14:00,91.1,51.0,25.63,NNW,340,13.0,20.0,25,0.00,,,0.00,weatherlink.com 1.10,2013-08-31 19:14:00,
2013-08-31 13:29:00,91.7,49.0,25.63,North,350,11.0,18.0,23,0.00,,,0.00,weatherlink.com 1.10,2013-08-31 19:29:00,
2013-08-31 13:44:00,91.4,51.0,25.62,NNE,16,15.0,20.0,25,0.00,,,0.00,weatherlink.com 1.10,2013-08-31 19:44:00,
2013-08-31 13:59:00,92.1,50.0,25.62,North,3,11.0,18.0,24,0.00,,,0.00,weatherlink.com 1.10,2013-08-31 19:59:00,
2013-08-31 14:14:00,92.9,49.0,25.62,North,6,18.0,19.0,22,0.00,,,0.00,weatherlink.com 1.10,2013-08-31 20:14:00,
2013-08-31 14:29:00,93.1,49.0,25.61,NNW,344,17.0,19.0,22,0.00,,,0.00,weatherlink.com 1.10,2013-08-31 20:29:00,
2013-08-31 14:45:00,93.6,47.0,25.61,NNE,31,12.0,19.0,20,0.00,,,0.00,weatherlink.com 1.10,2013-08-31 20:45:00,
2013-08-31 15:15:00,93.9,47.0,25.61,NNW,340,14.0,19.0,20,0.00,,,0.00,weatherlink.com 1.10,2013-08-31 21:15:00,
2013-08-31 15:30:00,93.7,46.0,25.60,NE,53,13.0,21.0,19,0.00,,,0.00,weatherlink.com 1.10,2013-08-31 21:30:00,
2013-08-31 15:45:00,93.3,50.0,25.60,NE,56,15.0,23.0,23,0.00,,,0.00,weatherlink.com 1.10,2013-08-31 21:45:00,
2013-08-31 16:00:00,92.8,51.0,25.60,NNE,32,16.0,25.0,24,0.00,,,0.00,weatherlink.com 1.10,2013-08-31 22:00:00,
2013-08-31 16:15:00,92.2,53.0,25.60,NNE,27,20.0,25.0,26,0.00,,,0.00,weatherlink.com 1.10,2013-08-31 22:15:00,
2013-08-31 16:30:00,92.0,54.0,25.60,NE,39,20.0,23.0,27,0.00,,,0.00,weatherlink.com 1.10,2013-08-31 22:30:00,
2013-08-31 16:45:00,91.0,54.0,25.61,ENE,63,17.0,28.0,28,0.00,,,0.00,weatherlink.com 1.10,2013-08-31 22:45:00,
2013-08-31 17:00:00,90.4,52.0,25.61,ENE,57,17.0,25.0,27,0.00,,,0.00,weatherlink.com 1.10,2013-08-31 23:00:00,
2013-08-31 17:15:00,89.5,53.0,25.61,NE,49,22.0,25.0,29,0.00,,,0.00,weatherlink.com 1.10,2013-08-31 23:15:00,
2013-08-31 17:30:00,88.7,56.0,25.61,ENE,63,20.0,22.0,33,0.00,,,0.00,weatherlink.com 1.10,2013-08-31 23:30:00,
2013-08-31 17:45:00,87.6,57.0,25.61,ENE,70,17.0,22.0,35,0.00,,,0.00,weatherlink.com 1.10,2013-08-31 23:45:00,
2013-08-31 18:00:00,86.7,57.0,25.62,NE,51,16.0,25.0,37,0.00,,,0.00,weatherlink.com 1.10,2013-09-01 00:00:00,
2013-08-31 18:16:00,85.3,57.0,25.62,ENE,64,16.0,20.0,38,0.00,,,0.00,weatherlink.com 1.10,2013-09-01 00:16:00,
2013-08-31 18:30:00,84.5,56.0,25.63,ENE,57,17.0,21.0,38,0.00,,,0.00,weatherlink.com 1.10,2013-09-01 00:30:00,
2013-08-31 19:00:00,81.8,57.0,25.64,ENE,60,15.0,18.0,43,0.00,,,0.00,weatherlink.com 1.10,2013-09-01 01:00:00,
2013-08-31 19:15:00,80.6,57.0,25.64,NE,49,11.0,15.0,44,0.00,,,0.00,weatherlink.com 1.10,2013-09-01 01:15:00,
2013-08-31 19:30:00,78.6,56.0,25.65,NE,48,9.0,12.0,46,0.00,,,0.00,weatherlink.com 1.10,2013-09-01 01:30:00,
2013-08-31 19:45:00,76.1,56.0,25.66,NE,34,7.0,9.0,50,0.00,,,0.00,weatherlink.com 1.10,2013-09-01 01:45:00,
2013-08-31 20:00:00,74.7,56.0,25.66,NE,53,7.0,9.0,52,0.00,,,0.00,weatherlink.com 1.10,2013-09-01 02:00:00,
2013-08-31 20:15:00,74.4,56.0,25.67,NE,52,10.0,13.0,53,0.00,,,0.00,weatherlink.com 1.10,2013-09-01 02:15:00,
2013-08-31 20:30:00,74.2,56.0,25.67,NE,49,10.0,17.0,53,0.00,,,0.00,weatherlink.com 1.10,2013-09-01 02:30:00,
2013-08-31 20:45:00,73.1,55.0,25.68,NE,41,11.0,17.0,53,0.00,,,0.00,weatherlink.com 1.10,2013-09-01 02:45:00,
2013-08-31 21:00:00,72.4,54.0,25.69,NE,49,8.0,14.0,52,0.00,,,0.00,weatherlink.com 1.10,2013-09-01 03:00:00,
2013-08-31 21:15:00,70.7,53.0,25.69,NE,36,7.0,8.0,54,0.00,,,0.00,weatherlink.com 1.10,2013-09-01 03:15:00,
2013-08-31 21:30:00,69.3,53.0,25.69,NE,36,7.0,10.0,56,0.00,,,0.00,weatherlink.com 1.10,2013-09-01 03:30:00,
2013-08-31 21:45:00,68.5,52.0,25.69,NE,43,6.0,10.0,57,0.00,,,0.00,weatherlink.com 1.10,2013-09-01 03:45:00,
2013-08-31 22:00:00,67.3,52.0,25.70,NE,43,7.0,8.0,58,0.00,,,0.00,weatherlink.com 1.10,2013-09-01 04:00:00,
2013-08-31 22:15:00,66.3,52.0,25.70,NE,44,9.0,9.0,60,0.00,,,0.00,weatherlink.com 1.10,2013-09-01 04:15:00,
2013-08-31 22:30:00,66.2,52.0,25.70,NNE,33,9.0,12.0,60,0.00,,,0.00,weatherlink.com 1.10,2013-09-01 04:30:00,
2013-08-31 22:45:00,65.9,52.0,25.70,NE,42,8.0,12.0,61,0.00,,,0.00,weatherlink.com 1.10,2013-09-01 04:45:00,
2013-08-31 23:00:00,65.6,51.0,25.71,ENE,59,5.0,10.0,60,0.00,,,0.00,weatherlink.com 1.10,2013-09-01 05:00:00,
2013-08-31 23:15:00,64.5,51.0,25.72,ENE,68,3.0,4.0,62,0.00,,,0.00,weatherlink.com 1.10,2013-09-01 05:15:00,
2013-08-31 23:30:00,63.2,51.0,25.73,SSE,159,2.0,4.0,64,0.00,,,0.00,weatherlink.com 1.10,2013-09-01 05:30:00,
2013-08-31 23:45:00,63.0,51.0,25.74,SE,125,1.0,2.0,66,0.00,,,0.00,weatherlink.com 1.10,2013-09-01 05:45:00,